sensor_id;sensor_type;location;lat;lon;timestamp;pressure;altitude;pressure_sealevel;temperature;humidity
7018;BME280;3549;42.162;24.726;2023-04-05T00:00:41;47828.53;;;-141.97;98.32
7018;BME280;3549;42.162;24.726;2023-04-05T00:03:07;47740.13;;;-141.97;98.21
7018;BME280;3549;42.162;24.726;2023-04-05T00:05:34;47790.09;;;-141.97;98.99
7018;BME280;3549;42.162;24.726;2023-04-05T00:08:04;47768.94;;;-141.97;99.11
7018;BME280;3549;42.162;24.726;2023-04-05T00:10:32;47834.31;;;-141.97;99.50
7018;BME280;3549;42.162;24.726;2023-04-05T00:12:58;47857.38;;;-141.97;98.73
7018;BME280;3549;42.162;24.726;2023-04-05T00:15:24;47770.88;;;-141.97;98.54
7018;BME280;3549;42.162;24.726;2023-04-05T00:17:49;47792.03;;;-141.97;98.37
7018;BME280;3549;42.162;24.726;2023-04-05T00:20:15;47722.81;;;-141.97;97.80
7018;BME280;3549;42.162;24.726;2023-04-05T00:22:41;47738.19;;;-141.97;97.93
7018;BME280;3549;42.162;24.726;2023-04-05T00:25:11;47876.59;;;-141.97;98.40
7018;BME280;3549;42.162;24.726;2023-04-05T00:27:36;47747.81;;;-141.97;98.37
7018;BME280;3549;42.162;24.726;2023-04-05T00:30:02;47676.69;;;-141.97;98.06
7018;BME280;3549;42.162;24.726;2023-04-05T00:32:28;47701.69;;;-141.97;98.28
7018;BME280;3549;42.162;24.726;2023-04-05T00:34:53;47736.28;;;-141.97;98.80
7018;BME280;3549;42.162;24.726;2023-04-05T00:37:20;47730.50;;;-141.97;99.12
7018;BME280;3549;42.162;24.726;2023-04-05T00:39:46;47807.41;;;-141.97;99.31
7018;BME280;3549;42.162;24.726;2023-04-05T00:42:11;47734.34;;;-141.97;99.28
7018;BME280;3549;42.162;24.726;2023-04-05T00:44:36;47853.53;;;-141.97;98.84
7018;BME280;3549;42.162;24.726;2023-04-05T00:47:06;47669.00;;;-141.97;98.29
7018;BME280;3549;42.162;24.726;2023-04-05T00:49:34;47824.69;;;-141.97;97.84
7018;BME280;3549;42.162;24.726;2023-04-05T00:52:01;47799.72;;;-141.97;98.17
7018;BME280;3549;42.162;24.726;2023-04-05T00:54:28;47782.41;;;-141.97;98.49
7018;BME280;3549;42.162;24.726;2023-04-05T00:56:56;47780.47;;;-141.97;97.88
7018;BME280;3549;42.162;24.726;2023-04-05T00:59:22;47776.63;;;-141.97;97.95
7018;BME280;3549;42.162;24.726;2023-04-05T01:02:24;47818.94;;;-141.97;97.61
7018;BME280;3549;42.162;24.726;2023-04-05T01:04:57;47845.84;;;-141.97;97.47
7018;BME280;3549;42.162;24.726;2023-04-05T01:07:39;47751.66;;;-141.97;97.89
7018;BME280;3549;42.162;24.726;2023-04-05T01:10:09;47674.78;;;-141.97;98.33
7018;BME280;3549;42.162;24.726;2023-04-05T01:12:37;47786.25;;;-141.97;98.09
7018;BME280;3549;42.162;24.726;2023-04-05T01:15:03;47818.94;;;-141.97;98.43
7018;BME280;3549;42.162;24.726;2023-04-05T01:17:29;47797.78;;;-141.97;98.46
7018;BME280;3549;42.162;24.726;2023-04-05T01:20:02;47815.09;;;-141.97;98.13
7018;BME280;3549;42.162;24.726;2023-04-05T01:23:03;47695.91;;;-141.97;97.96
7018;BME280;3549;42.162;24.726;2023-04-05T01:25:53;47751.66;;;-141.97;97.75
7018;BME280;3549;42.162;24.726;2023-04-05T01:36:29;47765.09;;;-141.97;97.29
7018;BME280;3549;42.162;24.726;2023-04-05T01:38:57;47747.81;;;-141.97;96.98
7018;BME280;3549;42.162;24.726;2023-04-05T01:41:23;47694.00;;;-141.97;96.38
7018;BME280;3549;42.162;24.726;2023-04-05T01:43:50;47792.03;;;-141.97;96.62
7018;BME280;3549;42.162;24.726;2023-04-05T01:46:15;47888.13;;;-141.97;97.05
7018;BME280;3549;42.162;24.726;2023-04-05T01:48:41;47765.09;;;-141.97;97.54
7018;BME280;3549;42.162;24.726;2023-04-05T01:51:06;47672.84;;;-141.97;97.93
7018;BME280;3549;42.162;24.726;2023-04-05T01:53:31;47772.78;;;-141.97;97.81
7018;BME280;3549;42.162;24.726;2023-04-05T01:56:00;47786.25;;;-141.97;97.83
7018;BME280;3549;42.162;24.726;2023-04-05T01:58:26;47893.91;;;-141.97;97.75
7018;BME280;3549;42.162;24.726;2023-04-05T02:00:55;47790.09;;;-141.97;97.26
7018;BME280;3549;42.162;24.726;2023-04-05T02:03:22;47872.75;;;-141.97;96.92
7018;BME280;3549;42.162;24.726;2023-04-05T02:05:47;47753.56;;;-141.97;96.23
7018;BME280;3549;42.162;24.726;2023-04-05T02:08:13;47780.47;;;-141.97;96.54
7018;BME280;3549;42.162;24.726;2023-04-05T02:10:39;47792.03;;;-141.97;96.00
7018;BME280;3549;42.162;24.726;2023-04-05T02:13:05;47842.00;;;-141.97;96.20
7018;BME280;3549;42.162;24.726;2023-04-05T02:15:30;47853.53;;;-141.97;95.78
7018;BME280;3549;42.162;24.726;2023-04-05T02:17:58;47778.56;;;-141.97;96.00
7018;BME280;3549;42.162;24.726;2023-04-05T02:20:27;47761.25;;;-141.97;95.75
7018;BME280;3549;42.162;24.726;2023-04-05T02:22:53;47861.22;;;-141.97;95.72
7018;BME280;3549;42.162;24.726;2023-04-05T02:25:18;47647.84;;;-141.97;95.96
7018;BME280;3549;42.162;24.726;2023-04-05T02:27:44;47780.47;;;-141.97;95.63
7018;BME280;3549;42.162;24.726;2023-04-05T02:30:10;47720.91;;;-141.97;95.77
7018;BME280;3549;42.162;24.726;2023-04-05T02:32:38;47765.09;;;-141.97;96.02
7018;BME280;3549;42.162;24.726;2023-04-05T02:35:04;47757.41;;;-141.97;96.27
7018;BME280;3549;42.162;24.726;2023-04-05T02:37:30;47817.00;;;-141.97;96.45
7018;BME280;3549;42.162;24.726;2023-04-05T02:39:55;47720.91;;;-141.97;96.44
7018;BME280;3549;42.162;24.726;2023-04-05T02:42:21;47878.53;;;-141.97;96.74
7018;BME280;3549;42.162;24.726;2023-04-05T02:44:46;47711.28;;;-141.97;96.91
7018;BME280;3549;42.162;24.726;2023-04-05T02:47:11;47865.06;;;-141.97;96.78
7018;BME280;3549;42.162;24.726;2023-04-05T02:49:37;47811.25;;;-141.97;96.89
7018;BME280;3549;42.162;24.726;2023-04-05T02:52:02;47701.69;;;-141.97;96.22
7018;BME280;3549;42.162;24.726;2023-04-05T02:54:27;47718.97;;;-141.97;96.70
7018;BME280;3549;42.162;24.726;2023-04-05T02:56:53;47711.28;;;-141.97;96.10
7018;BME280;3549;42.162;24.726;2023-04-05T02:59:21;47797.78;;;-141.97;95.95
7018;BME280;3549;42.162;24.726;2023-04-05T03:01:47;47684.38;;;-141.97;96.15
7018;BME280;3549;42.162;24.726;2023-04-05T03:04:12;47707.44;;;-141.97;96.22
7018;BME280;3549;42.162;24.726;2023-04-05T03:06:38;47655.53;;;-141.97;96.05
7018;BME280;3549;42.162;24.726;2023-04-05T03:09:03;47767.03;;;-141.97;96.17
7018;BME280;3549;42.162;24.726;2023-04-05T03:11:29;47726.66;;;-141.97;95.90
7018;BME280;3549;42.162;24.726;2023-04-05T03:13:55;47740.13;;;-141.97;95.85
7018;BME280;3549;42.162;24.726;2023-04-05T03:16:21;47674.78;;;-141.97;95.38
7018;BME280;3549;42.162;24.726;2023-04-05T03:18:47;47832.38;;;-141.97;95.19
7018;BME280;3549;42.162;24.726;2023-04-05T03:21:13;47711.28;;;-141.97;95.54
7018;BME280;3549;42.162;24.726;2023-04-05T03:23:42;47855.44;;;-141.97;94.75
7018;BME280;3549;42.162;24.726;2023-04-05T03:26:07;47761.25;;;-141.97;94.48
7018;BME280;3549;42.162;24.726;2023-04-05T03:28:34;47795.88;;;-141.97;95.22
7018;BME280;3549;42.162;24.726;2023-04-05T03:30:59;47757.41;;;-141.97;94.87
7018;BME280;3549;42.162;24.726;2023-04-05T03:33:25;47765.09;;;-141.97;95.20
7018;BME280;3549;42.162;24.726;2023-04-05T03:35:50;47722.81;;;-141.97;95.04
7018;BME280;3549;42.162;24.726;2023-04-05T03:38:16;47692.06;;;-141.97;94.75
7018;BME280;3549;42.162;24.726;2023-04-05T03:40:42;47732.44;;;-141.97;94.53
7018;BME280;3549;42.162;24.726;2023-04-05T03:43:07;47592.13;;;-141.97;94.38
7018;BME280;3549;42.162;24.726;2023-04-05T03:45:33;47761.25;;;-141.97;94.75
7018;BME280;3549;42.162;24.726;2023-04-05T03:47:58;47851.59;;;-141.97;94.33
7018;BME280;3549;42.162;24.726;2023-04-05T03:50:24;47757.41;;;-141.97;93.85
7018;BME280;3549;42.162;24.726;2023-04-05T03:52:53;47680.53;;;-141.97;94.21
7018;BME280;3549;42.162;24.726;2023-04-05T03:55:18;47849.69;;;-141.97;93.92
7018;BME280;3549;42.162;24.726;2023-04-05T03:57:44;47866.97;;;-141.97;94.16
7018;BME280;3549;42.162;24.726;2023-04-05T04:00:10;47786.25;;;-141.97;94.50
7018;BME280;3549;42.162;24.726;2023-04-05T04:02:48;47803.56;;;-141.97;93.94
7018;BME280;3549;42.162;24.726;2023-04-05T04:05:15;47788.19;;;-141.97;93.57
7018;BME280;3549;42.162;24.726;2023-04-05T04:07:41;47699.75;;;-141.97;94.14
7018;BME280;3549;42.162;24.726;2023-04-05T04:10:08;47732.44;;;-141.97;94.29
7018;BME280;3549;42.162;24.726;2023-04-05T04:12:35;47703.59;;;-141.97;94.18
7018;BME280;3549;42.162;24.726;2023-04-05T04:15:00;47768.94;;;-141.97;93.88
7018;BME280;3549;42.162;24.726;2023-04-05T04:17:31;47818.94;;;-141.97;94.16
7018;BME280;3549;42.162;24.726;2023-04-05T04:19:56;47784.34;;;-141.97;94.12
7018;BME280;3549;42.162;24.726;2023-04-05T04:22:23;47776.63;;;-141.97;94.48
7018;BME280;3549;42.162;24.726;2023-04-05T04:24:53;47695.91;;;-141.97;94.34
7018;BME280;3549;42.162;24.726;2023-04-05T04:27:19;47761.25;;;-141.97;94.41
7018;BME280;3549;42.162;24.726;2023-04-05T04:29:48;47865.06;;;-141.97;94.18
7018;BME280;3549;42.162;24.726;2023-04-05T04:32:14;47807.41;;;-141.97;94.14
7018;BME280;3549;42.162;24.726;2023-04-05T04:34:40;47780.47;;;-141.97;93.90
7018;BME280;3549;42.162;24.726;2023-04-05T04:37:15;47759.34;;;-141.97;93.90
7018;BME280;3549;42.162;24.726;2023-04-05T04:39:47;47768.94;;;-141.97;93.65
7018;BME280;3549;42.162;24.726;2023-04-05T04:42:15;47676.69;;;-141.97;93.31
7018;BME280;3549;42.162;24.726;2023-04-05T04:44:44;47786.25;;;-141.97;93.04
7018;BME280;3549;42.162;24.726;2023-04-05T04:47:10;47793.94;;;-141.97;92.76
7018;BME280;3549;42.162;24.726;2023-04-05T04:49:37;47734.34;;;-141.97;92.53
7018;BME280;3549;42.162;24.726;2023-04-05T04:52:02;47842.00;;;-141.97;92.61
7018;BME280;3549;42.162;24.726;2023-04-05T04:54:28;47740.13;;;-141.97;92.11
7018;BME280;3549;42.162;24.726;2023-04-05T04:56:53;47776.63;;;-141.97;92.20
7018;BME280;3549;42.162;24.726;2023-04-05T04:59:18;47855.44;;;-141.97;91.98
7018;BME280;3549;42.162;24.726;2023-04-05T05:01:44;47738.19;;;-141.97;91.70
7018;BME280;3549;42.162;24.726;2023-04-05T05:04:10;47795.88;;;-141.97;91.54
7018;BME280;3549;42.162;24.726;2023-04-05T05:06:35;47851.59;;;-141.97;91.35
7018;BME280;3549;42.162;24.726;2023-04-05T05:09:01;47763.19;;;-141.97;91.14
7018;BME280;3549;42.162;24.726;2023-04-05T05:11:27;47790.09;;;-141.97;90.79
7018;BME280;3549;42.162;24.726;2023-04-05T05:13:53;47845.84;;;-141.97;90.67
7018;BME280;3549;42.162;24.726;2023-04-05T05:16:18;47767.03;;;-141.97;90.52
7018;BME280;3549;42.162;24.726;2023-04-05T05:18:46;47676.69;;;-141.97;90.58
7018;BME280;3549;42.162;24.726;2023-04-05T05:21:12;47828.53;;;-141.97;90.35
7018;BME280;3549;42.162;24.726;2023-04-05T05:23:38;47734.34;;;-141.97;90.58
7018;BME280;3549;42.162;24.726;2023-04-05T05:26:03;47688.22;;;-141.97;90.83
7018;BME280;3549;42.162;24.726;2023-04-05T05:28:29;47805.47;;;-141.97;89.77
7018;BME280;3549;42.162;24.726;2023-04-05T05:30:54;47828.53;;;-141.97;89.12
7018;BME280;3549;42.162;24.726;2023-04-05T05:33:20;47793.94;;;-141.97;89.21
7018;BME280;3549;42.162;24.726;2023-04-05T05:35:49;47699.75;;;-141.97;89.03
7018;BME280;3549;42.162;24.726;2023-04-05T05:38:16;47868.91;;;-141.97;89.10
7018;BME280;3549;42.162;24.726;2023-04-05T05:40:41;47828.53;;;-141.97;88.96
7018;BME280;3549;42.162;24.726;2023-04-05T05:43:07;47699.75;;;-141.97;88.85
7018;BME280;3549;42.162;24.726;2023-04-05T05:45:33;47843.91;;;-141.97;87.56
7018;BME280;3549;42.162;24.726;2023-04-05T05:47:58;47738.19;;;-141.97;87.67
7018;BME280;3549;42.162;24.726;2023-04-05T05:50:23;47845.84;;;-141.97;87.57
7018;BME280;3549;42.162;24.726;2023-04-05T05:52:49;47874.69;;;-141.97;87.66
7018;BME280;3549;42.162;24.726;2023-04-05T05:55:14;47722.81;;;-141.97;87.09
7018;BME280;3549;42.162;24.726;2023-04-05T05:57:40;47753.56;;;-141.97;87.07
7018;BME280;3549;42.162;24.726;2023-04-05T06:00:06;47895.81;;;-141.97;87.34
7018;BME280;3549;42.162;24.726;2023-04-05T06:02:34;47870.81;;;-141.97;87.48
7018;BME280;3549;42.162;24.726;2023-04-05T06:05:00;47763.19;;;-141.97;87.00
7018;BME280;3549;42.162;24.726;2023-04-05T06:07:27;47784.34;;;-141.97;87.04
7018;BME280;3549;42.162;24.726;2023-04-05T06:09:52;47834.31;;;-141.97;86.62
7018;BME280;3549;42.162;24.726;2023-04-05T06:12:21;47695.91;;;-141.97;87.29
7018;BME280;3549;42.162;24.726;2023-04-05T06:14:47;47861.22;;;-141.97;86.66
7018;BME280;3549;42.162;24.726;2023-04-05T06:17:12;47745.88;;;-141.97;85.76
7018;BME280;3549;42.162;24.726;2023-04-05T06:19:37;47684.38;;;-141.97;85.72
7018;BME280;3549;42.162;24.726;2023-04-05T06:22:03;47784.34;;;-141.97;85.14
7018;BME280;3549;42.162;24.726;2023-04-05T06:24:28;47782.41;;;-141.97;84.86
7018;BME280;3549;42.162;24.726;2023-04-05T06:26:57;47751.66;;;-141.97;84.79
7018;BME280;3549;42.162;24.726;2023-04-05T06:29:23;47718.97;;;-141.97;84.30
7018;BME280;3549;42.162;24.726;2023-04-05T06:31:48;47747.81;;;-141.97;84.13
7018;BME280;3549;42.162;24.726;2023-04-05T06:34:13;47615.19;;;-141.97;83.97
7018;BME280;3549;42.162;24.726;2023-04-05T06:36:39;47670.91;;;-141.97;84.69
7018;BME280;3549;42.162;24.726;2023-04-05T06:39:05;47834.31;;;-141.97;83.68
7018;BME280;3549;42.162;24.726;2023-04-05T06:41:30;47732.44;;;-141.97;83.42
7018;BME280;3549;42.162;24.726;2023-04-05T06:43:57;47859.28;;;-141.97;84.20
7018;BME280;3549;42.162;24.726;2023-04-05T06:46:22;47703.59;;;-141.97;83.47
7018;BME280;3549;42.162;24.726;2023-04-05T06:48:48;47842.00;;;-141.97;83.68
7018;BME280;3549;42.162;24.726;2023-04-05T06:51:14;47665.16;;;-141.97;82.30
7018;BME280;3549;42.162;24.726;2023-04-05T06:53:40;47845.84;;;-141.97;82.21
7018;BME280;3549;42.162;24.726;2023-04-05T06:56:06;47784.34;;;-141.97;82.35
7018;BME280;3549;42.162;24.726;2023-04-05T06:58:31;47882.38;;;-141.97;82.10
7018;BME280;3549;42.162;24.726;2023-04-05T07:00:59;47793.94;;;-141.97;82.23
7018;BME280;3549;42.162;24.726;2023-04-05T07:03:24;47682.47;;;-141.97;82.62
7018;BME280;3549;42.162;24.726;2023-04-05T07:05:55;47811.25;;;-141.97;82.38
7018;BME280;3549;42.162;24.726;2023-04-05T07:08:24;47765.09;;;-141.97;82.90
7018;BME280;3549;42.162;24.726;2023-04-05T07:10:51;47692.06;;;-141.97;82.43
7018;BME280;3549;42.162;24.726;2023-04-05T07:13:18;47724.75;;;-141.97;81.94
7018;BME280;3549;42.162;24.726;2023-04-05T07:15:44;47842.00;;;-141.97;81.91
7018;BME280;3549;42.162;24.726;2023-04-05T07:18:10;47767.03;;;-141.97;81.80
7018;BME280;3549;42.162;24.726;2023-04-05T07:20:35;47740.13;;;-141.97;82.09
7018;BME280;3549;42.162;24.726;2023-04-05T07:23:01;47765.09;;;-141.97;81.22
7018;BME280;3549;42.162;24.726;2023-04-05T07:25:26;47803.56;;;-141.97;81.17
7018;BME280;3549;42.162;24.726;2023-04-05T07:27:52;47851.59;;;-141.97;81.51
7018;BME280;3549;42.162;24.726;2023-04-05T07:30:18;47784.34;;;-141.97;81.51
7018;BME280;3549;42.162;24.726;2023-04-05T07:32:44;47851.59;;;-141.97;81.41
7018;BME280;3549;42.162;24.726;2023-04-05T07:35:09;47663.22;;;-141.97;82.61
7018;BME280;3549;42.162;24.726;2023-04-05T07:37:35;47674.78;;;-141.97;81.62
7018;BME280;3549;42.162;24.726;2023-04-05T07:40:01;47638.25;;;-141.97;81.28
7018;BME280;3549;42.162;24.726;2023-04-05T07:42:27;47707.44;;;-141.97;81.49
7018;BME280;3549;42.162;24.726;2023-04-05T07:44:53;47855.44;;;-141.97;79.67
7018;BME280;3549;42.162;24.726;2023-04-05T07:47:18;47638.25;;;-141.97;79.67
7018;BME280;3549;42.162;24.726;2023-04-05T07:49:43;47849.69;;;-141.97;81.26
7018;BME280;3549;42.162;24.726;2023-04-05T07:52:09;47665.16;;;-141.97;80.91
7018;BME280;3549;42.162;24.726;2023-04-05T07:54:35;47661.31;;;-141.97;79.72
7018;BME280;3549;42.162;24.726;2023-04-05T07:57:04;47776.63;;;-141.97;80.16
7018;BME280;3549;42.162;24.726;2023-04-05T07:59:29;47888.13;;;-141.97;80.43
7018;BME280;3549;42.162;24.726;2023-04-05T08:01:55;47717.06;;;-141.97;79.32
7018;BME280;3549;42.162;24.726;2023-04-05T08:04:20;47849.69;;;-141.97;80.07
7018;BME280;3549;42.162;24.726;2023-04-05T08:06:46;47761.25;;;-141.97;79.54
7018;BME280;3549;42.162;24.726;2023-04-05T08:09:12;47751.66;;;-141.97;79.67
7018;BME280;3549;42.162;24.726;2023-04-05T08:11:37;47753.56;;;-141.97;79.35
7018;BME280;3549;42.162;24.726;2023-04-05T08:14:03;47807.41;;;-141.97;77.80
7018;BME280;3549;42.162;24.726;2023-04-05T08:16:28;47745.88;;;-141.97;78.99
7018;BME280;3549;42.162;24.726;2023-04-05T08:18:54;47715.13;;;-141.97;78.54
7018;BME280;3549;42.162;24.726;2023-04-05T08:21:20;47699.75;;;-141.97;78.52
7018;BME280;3549;42.162;24.726;2023-04-05T08:23:46;47732.44;;;-141.97;78.89
7018;BME280;3549;42.162;24.726;2023-04-05T08:26:12;47730.50;;;-141.97;78.26
7018;BME280;3549;42.162;24.726;2023-04-05T08:28:37;47743.97;;;-141.97;77.77
7018;BME280;3549;42.162;24.726;2023-04-05T08:31:02;47778.56;;;-141.97;77.50
7018;BME280;3549;42.162;24.726;2023-04-05T08:33:28;47688.22;;;-141.97;78.02
7018;BME280;3549;42.162;24.726;2023-04-05T08:35:55;47865.06;;;-141.97;77.87
7018;BME280;3549;42.162;24.726;2023-04-05T08:38:21;47669.00;;;-141.97;77.76
7018;BME280;3549;42.162;24.726;2023-04-05T08:40:47;47822.78;;;-141.97;77.38
7018;BME280;3549;42.162;24.726;2023-04-05T08:46:00;47711.28;;;-141.97;78.60
7018;BME280;3549;42.162;24.726;2023-04-05T08:48:26;47795.88;;;-141.97;78.92
7018;BME280;3549;42.162;24.726;2023-04-05T08:50:55;47711.28;;;-141.97;77.87
7018;BME280;3549;42.162;24.726;2023-04-05T08:53:21;47638.25;;;-141.97;78.02
7018;BME280;3549;42.162;24.726;2023-04-05T08:55:52;47772.78;;;-141.97;78.22
7018;BME280;3549;42.162;24.726;2023-04-05T08:58:20;47770.88;;;-141.97;77.32
7018;BME280;3549;42.162;24.726;2023-04-05T09:00:50;47793.94;;;-141.97;78.33
7018;BME280;3549;42.162;24.726;2023-04-05T09:03:27;47770.88;;;-141.97;77.73
7018;BME280;3549;42.162;24.726;2023-04-05T09:05:57;47711.28;;;-141.97;77.45
7018;BME280;3549;42.162;24.726;2023-04-05T09:08:23;47776.63;;;-141.97;76.61
7018;BME280;3549;42.162;24.726;2023-04-05T09:10:49;47765.09;;;-141.97;75.67
7018;BME280;3549;42.162;24.726;2023-04-05T09:13:18;47703.59;;;-141.97;75.85
7018;BME280;3549;42.162;24.726;2023-04-05T09:15:43;47818.94;;;-141.97;76.23
7018;BME280;3549;42.162;24.726;2023-04-05T09:18:10;47884.28;;;-141.97;76.20
7018;BME280;3549;42.162;24.726;2023-04-05T09:20:36;47649.78;;;-141.97;76.60
7018;BME280;3549;42.162;24.726;2023-04-05T09:23:01;47709.38;;;-141.97;76.53
7018;BME280;3549;42.162;24.726;2023-04-05T09:25:33;47807.41;;;-141.97;75.80
7018;BME280;3549;42.162;24.726;2023-04-05T09:28:00;47772.78;;;-141.97;75.77
7018;BME280;3549;42.162;24.726;2023-04-05T09:30:27;47743.97;;;-141.97;75.64
7018;BME280;3549;42.162;24.726;2023-04-05T09:32:54;47784.34;;;-141.97;75.88
7018;BME280;3549;42.162;24.726;2023-04-05T09:35:24;47743.97;;;-141.97;75.59
7018;BME280;3549;42.162;24.726;2023-04-05T09:37:53;47824.69;;;-141.97;75.43
7018;BME280;3549;42.162;24.726;2023-04-05T09:40:19;47876.59;;;-141.97;75.88
7018;BME280;3549;42.162;24.726;2023-04-05T09:42:45;47734.34;;;-141.97;75.73
7018;BME280;3549;42.162;24.726;2023-04-05T09:45:11;47757.41;;;-141.97;76.11
7018;BME280;3549;42.162;24.726;2023-04-05T09:47:37;47757.41;;;-141.97;76.47
7018;BME280;3549;42.162;24.726;2023-04-05T09:52:38;47847.75;;;-141.97;75.70
7018;BME280;3549;42.162;24.726;2023-04-05T09:55:04;47761.25;;;-141.97;75.16
7018;BME280;3549;42.162;24.726;2023-04-05T09:57:37;47740.13;;;-141.97;75.36
7018;BME280;3549;42.162;24.726;2023-04-05T10:00:04;47670.91;;;-141.97;74.97
7018;BME280;3549;42.162;24.726;2023-04-05T10:02:38;47659.38;;;-141.97;74.29
7018;BME280;3549;42.162;24.726;2023-04-05T10:05:10;47780.47;;;-141.97;73.40
7018;BME280;3549;42.162;24.726;2023-04-05T10:07:38;47799.72;;;-141.97;74.21
7018;BME280;3549;42.162;24.726;2023-04-05T10:10:05;47732.44;;;-141.97;75.14
7018;BME280;3549;42.162;24.726;2023-04-05T10:12:31;47886.22;;;-141.97;75.37
7018;BME280;3549;42.162;24.726;2023-04-05T10:14:57;47859.28;;;-141.97;75.32
7018;BME280;3549;42.162;24.726;2023-04-05T10:17:30;47824.69;;;-141.97;75.20
7018;BME280;3549;42.162;24.726;2023-04-05T10:30:46;47790.09;;;-141.97;75.79
7018;BME280;3549;42.162;24.726;2023-04-05T10:33:19;47755.50;;;-141.97;74.20
7018;BME280;3549;42.162;24.726;2023-04-05T10:38:35;47797.78;;;-141.97;74.83
7018;BME280;3549;42.162;24.726;2023-04-05T10:41:11;47780.47;;;-141.97;75.78
7018;BME280;3549;42.162;24.726;2023-04-05T10:43:39;47763.19;;;-141.97;75.63
7018;BME280;3549;42.162;24.726;2023-04-05T10:46:07;47699.75;;;-141.97;74.32
7018;BME280;3549;42.162;24.726;2023-04-05T10:51:25;47772.78;;;-141.97;74.57
7018;BME280;3549;42.162;24.726;2023-04-05T10:53:53;47726.66;;;-141.97;75.07
7018;BME280;3549;42.162;24.726;2023-04-05T10:56:20;47676.69;;;-141.97;75.49
7018;BME280;3549;42.162;24.726;2023-04-05T10:58:46;47780.47;;;-141.97;75.89
7018;BME280;3549;42.162;24.726;2023-04-05T11:01:13;47815.09;;;-141.97;75.84
7018;BME280;3549;42.162;24.726;2023-04-05T11:11:39;47782.41;;;-141.97;73.67
7018;BME280;3549;42.162;24.726;2023-04-05T11:14:25;47695.91;;;-141.97;74.14
7018;BME280;3549;42.162;24.726;2023-04-05T11:16:58;47751.66;;;-141.97;74.49
7018;BME280;3549;42.162;24.726;2023-04-05T11:22:08;47738.19;;;-141.97;74.60
7018;BME280;3549;42.162;24.726;2023-04-05T11:25:00;47778.56;;;-141.97;74.36
7018;BME280;3549;42.162;24.726;2023-04-05T11:27:36;47738.19;;;-141.97;75.08
7018;BME280;3549;42.162;24.726;2023-04-05T11:30:03;47767.03;;;-141.97;74.34
7018;BME280;3549;42.162;24.726;2023-04-05T11:32:39;47778.56;;;-141.97;74.58
7018;BME280;3549;42.162;24.726;2023-04-05T11:35:07;47680.53;;;-141.97;74.92
7018;BME280;3549;42.162;24.726;2023-04-05T11:37:54;47792.03;;;-141.97;74.88
7018;BME280;3549;42.162;24.726;2023-04-05T11:40:31;47738.19;;;-141.97;75.14
7018;BME280;3549;42.162;24.726;2023-04-05T11:43:07;47772.78;;;-141.97;75.09
7018;BME280;3549;42.162;24.726;2023-04-05T11:45:35;47786.25;;;-141.97;74.28
7018;BME280;3549;42.162;24.726;2023-04-05T11:48:09;47770.88;;;-141.97;73.85
7018;BME280;3549;42.162;24.726;2023-04-05T11:50:36;47770.88;;;-141.97;74.25
7018;BME280;3549;42.162;24.726;2023-04-05T11:53:17;47882.38;;;-141.97;74.03
7018;BME280;3549;42.162;24.726;2023-04-05T11:55:49;47776.63;;;-141.97;74.43
7018;BME280;3549;42.162;24.726;2023-04-05T11:58:20;47763.19;;;-141.97;74.35
7018;BME280;3549;42.162;24.726;2023-04-05T12:00:57;47899.66;;;-141.97;74.03
7018;BME280;3549;42.162;24.726;2023-04-05T12:03:22;47772.78;;;-141.97;73.53
7018;BME280;3549;42.162;24.726;2023-04-05T12:05:54;47786.25;;;-141.97;72.67
7018;BME280;3549;42.162;24.726;2023-04-05T12:08:20;47843.91;;;-141.97;72.87
7018;BME280;3549;42.162;24.726;2023-04-05T12:10:56;47749.72;;;-141.97;73.70
7018;BME280;3549;42.162;24.726;2023-04-05T12:13:30;47751.66;;;-141.97;73.70
7018;BME280;3549;42.162;24.726;2023-04-05T12:15:57;47724.75;;;-141.97;74.50
7018;BME280;3549;42.162;24.726;2023-04-05T12:18:24;47868.91;;;-141.97;74.57
7018;BME280;3549;42.162;24.726;2023-04-05T12:20:51;47755.50;;;-141.97;74.42
7018;BME280;3549;42.162;24.726;2023-04-05T12:23:17;47759.34;;;-141.97;74.15
7018;BME280;3549;42.162;24.726;2023-04-05T12:25:52;47782.41;;;-141.97;75.48
7018;BME280;3549;42.162;24.726;2023-04-05T12:28:18;47718.97;;;-141.97;75.29
7018;BME280;3549;42.162;24.726;2023-04-05T12:30:55;47751.66;;;-141.97;74.60
7018;BME280;3549;42.162;24.726;2023-04-05T12:33:30;47615.19;;;-141.97;75.52
7018;BME280;3549;42.162;24.726;2023-04-05T12:35:57;47734.34;;;-141.97;76.48
7018;BME280;3549;42.162;24.726;2023-04-05T12:38:26;47801.63;;;-141.97;77.04
7018;BME280;3549;42.162;24.726;2023-04-05T12:40:53;47838.16;;;-141.97;77.15
7018;BME280;3549;42.162;24.726;2023-04-05T12:43:19;47722.81;;;-141.97;77.81
7018;BME280;3549;42.162;24.726;2023-04-05T12:45:45;47659.38;;;-141.97;77.72
7018;BME280;3549;42.162;24.726;2023-04-05T12:48:12;47793.94;;;-141.97;78.45
7018;BME280;3549;42.162;24.726;2023-04-05T12:50:43;47778.56;;;-141.97;76.89
7018;BME280;3549;42.162;24.726;2023-04-05T12:53:15;47753.56;;;-141.97;77.32
7018;BME280;3549;42.162;24.726;2023-04-05T12:55:50;47790.09;;;-141.97;76.47
7018;BME280;3549;42.162;24.726;2023-04-05T12:58:17;47818.94;;;-141.97;75.06
7018;BME280;3549;42.162;24.726;2023-04-05T13:00:43;47680.53;;;-141.97;74.73
7018;BME280;3549;42.162;24.726;2023-04-05T13:03:19;47749.72;;;-141.97;75.63
7018;BME280;3549;42.162;24.726;2023-04-05T13:05:48;47830.47;;;-141.97;76.22
7018;BME280;3549;42.162;24.726;2023-04-05T13:08:14;47782.41;;;-141.97;77.17
7018;BME280;3549;42.162;24.726;2023-04-05T13:10:43;47768.94;;;-141.97;78.80
7018;BME280;3549;42.162;24.726;2023-04-05T13:13:08;47836.22;;;-141.97;79.23
7018;BME280;3549;42.162;24.726;2023-04-05T13:15:34;47724.75;;;-141.97;79.77
7018;BME280;3549;42.162;24.726;2023-04-05T13:18:00;47776.63;;;-141.97;79.14
7018;BME280;3549;42.162;24.726;2023-04-05T13:20:25;47619.03;;;-141.97;79.69
7018;BME280;3549;42.162;24.726;2023-04-05T13:22:51;47899.66;;;-141.97;78.15
7018;BME280;3549;42.162;24.726;2023-04-05T13:25:16;47763.19;;;-141.97;78.10
7018;BME280;3549;42.162;24.726;2023-04-05T13:27:42;47768.94;;;-141.97;76.59
7018;BME280;3549;42.162;24.726;2023-04-05T13:30:08;47770.88;;;-141.97;76.72
7018;BME280;3549;42.162;24.726;2023-04-05T13:32:33;47749.72;;;-141.97;76.34